METAR AND TAF INFORMATION
METAR FOR KSLC
ADDS - METARS form results

(2311 UTC 22 May 2018)
Data provider http://aviationweather.gov/adds/metars/
 
METAR text: KSLC 222254Z 34021KT 10SM SCT090 BKN120 18/09 A2991 RMK AO2 SLP091 VIRGA RAE12 TSE12 CB DSNT ALQDS VCSH P0000 T01830089
Conditions at: KSLC (SALT LAKE CITY , UT, US) observed 2254 UTC 22 May 2018
Temperature: 18.3°C (65°F)
Dewpoint: 8.9°C (48°F) [RH = 54%]
Pressure (altimeter): 29.91 inches Hg (1013.0 mb)
[Sea-level pressure: 1009.1 mb]
Winds: from the NNW (340 degrees) at 24 MPH (21 knots; 10.9 m/s)
Visibility: 10 or more miles (16+ km)
Ceiling: 12000 feet AGL
Clouds: scattered clouds at 9000 feet AGL
broken clouds at 12000 feet AGL
Weather: no significant weather observed at this time

METAR text: KSLC 222218Z 31017KT 10SM FEW055 SCT100 BKN110 BKN180 BKN220 17/08 A2992 RMK AO2 LTG DSNT NW VIRGA RAE12 TSE12 CB DSNT ALQDS VCSH P0000 T01720083
Conditions at: KSLC (SALT LAKE CITY , UT, US) observed 2218 UTC 22 May 2018
Temperature: 17.2°C (63°F)
Dewpoint: 8.3°C (47°F) [RH = 56%]
Pressure (altimeter): 29.92 inches Hg (1013.3 mb)
Winds: from the NW (310 degrees) at 20 MPH (17 knots; 8.8 m/s)
Visibility: 10 or more miles (16+ km)
Ceiling: 11000 feet AGL
Clouds: few clouds at 5500 feet AGL
scattered clouds at 10000 feet AGL
broken clouds at 11000 feet AGL
broken clouds at 18000 feet AGL
Weather: no significant weather observed at this time

Forecast for: KSLC (SALT LAKE CITY , UT, US)
Text: KSLC 222211Z 2222/2324 33011KT P6SM VCSH FEW060 BKN110
Forecast period: 2200 UTC 22 May 2018 to 0500 UTC 23 May 2018
Forecast type: FROM: standard forecast or significant change
Winds: from the NNW (330 degrees) at 13 MPH (11 knots; 5.7 m/s)
Visibility: 6 or more miles (10+ km)
Ceiling: 11000 feet AGL
Clouds: few clouds at 6000 feet AGL
broken clouds at 11000 feet AGL
Weather: VCSH  (showers in vicinity)
Forecast for: KSLC (SALT LAKE CITY , UT, US)
Text: KSLC 222211Z 2222/2324 33011KT P6SM VCSH FEW060 BKN110
Forecast period: 2200 UTC 22 May 2018 to 0500 UTC 23 May 2018
Forecast type: FROM: standard forecast or significant change
Winds: from the NNW (330 degrees) at 13 MPH (11 knots; 5.7 m/s)
Visibility: 6 or more miles (10+ km)
Ceiling: 11000 feet AGL
Clouds: few clouds at 6000 feet AGL
broken clouds at 11000 feet AGL
Weather: VCSH  (showers in vicinity)
Forecast for: KSLC (SALT LAKE CITY , UT, US)
Text: KSLC 222211Z 2222/2324 33011KT P6SM VCSH FEW060 BKN110
Forecast period: 0500 to 1600 UTC 23 May 2018
Forecast type: FROM: standard forecast or significant change
Winds: from the SSE (150 degrees) at 8 MPH (7 knots; 3.6 m/s)
Visibility: 6 or more miles (10+ km)
Ceiling: 15000 feet AGL
Clouds: few clouds at 10000 feet AGL
broken clouds at 15000 feet AGL
Weather: no significant weather forecast for this period
Forecast for: KSLC (SALT LAKE CITY , UT, US)
Text: KSLC 222211Z 2222/2324 33011KT P6SM VCSH FEW060 BKN110
Forecast period: 0500 to 1600 UTC 23 May 2018
Forecast type: FROM: standard forecast or significant change
Winds: from the SSE (150 degrees) at 8 MPH (7 knots; 3.6 m/s)
Visibility: 6 or more miles (10+ km)
Ceiling: 15000 feet AGL
Clouds: few clouds at 10000 feet AGL
broken clouds at 15000 feet AGL
Weather: no significant weather forecast for this period
Forecast for: KSLC (SALT LAKE CITY , UT, US)
Text: KSLC 222211Z 2222/2324 33011KT P6SM VCSH FEW060 BKN110
Forecast period: 1600 UTC 23 May 2018 to 0000 UTC 24 May 2018
Forecast type: FROM: standard forecast or significant change
Winds: from the S (170 degrees) at 12 MPH (10 knots; 5.2 m/s)
gusting to 20 MPH (17 knots; 8.8 m/s)
Visibility: 6 or more miles (10+ km)
Ceiling: 20000 feet AGL
Clouds: broken clouds at 20000 feet AGL
Weather: no significant weather forecast for this period
Forecast for: KSLC (SALT LAKE CITY , UT, US)
Text: KSLC 222211Z 2222/2324 33011KT P6SM VCSH FEW060 BKN110
Forecast period: 1600 UTC 23 May 2018 to 0000 UTC 24 May 2018
Forecast type: FROM: standard forecast or significant change
Winds: from the S (170 degrees) at 12 MPH (10 knots; 5.2 m/s)
gusting to 20 MPH (17 knots; 8.8 m/s)
Visibility: 6 or more miles (10+ km)
Ceiling: 20000 feet AGL
Clouds: broken clouds at 20000 feet AGL
Weather: no significant weather forecast for this period

 AIRPORT MAP

 RUNWAY INFORMATION
Runway 14 Runway length 4892 ft Runway width 150 ft
Runway elevation 4222 ft Runway displaced threshold 0 ft Runway heading 153
Runway 32 Runway length 4892 ft Runway width 150 ft
Runway elevation 4224 ft Runway displaced threshold 0 ft Runway heading 333
Runway 16L Runway length 12004 ft Runway width 150 ft
Runway elevation 4226 ft Runway displaced threshold 0 ft Runway heading 175
Runway 34R Runway length 12004 ft Runway width 150 ft
Runway elevation 4221 ft Runway displaced threshold 0 ft Runway heading 355
Runway 16R Runway length 12000 ft Runway width 150 ft
Runway elevation 4221 ft Runway displaced threshold 0 ft Runway heading 175
Runway 34L Runway length 12000 ft Runway width 150 ft
Runway elevation 4226 ft Runway displaced threshold 0 ft Runway heading 355
Runway 17 Runway length 9596 ft Runway width 150 ft
Runway elevation 4219 ft Runway displaced threshold 0 ft Runway heading 180
Runway 35 Runway length 9596 ft Runway width 150 ft
Runway elevation 4224 ft Runway displaced threshold 324 ft Runway heading 360

 AIRPORT FREQUENCIES
Type A/D Name APP/DEP Frequency 121.1 MHZ
Type ATIS Name ATIS Frequency 124.75 MHZ
Type CLD Name CLNC DEL Frequency 127.3 MHZ
Type GND Name GND Frequency 121.9 MHZ
Type OPS Name ANG OPS Frequency 30.3 MHZ
Type RDO Name CEDAR CITY Frequency 122.4 MHZ
Type TWR Name TWR Frequency 118.3 MHZ
Type UNIC Name UNICOM Frequency 122.95 MHZ

 AIRPORT NEAR NAVIGATION AIDS
Type VORTAC Name Wasatch Frequency 116800 KHZ



Powered by Virtual Airlines Manager [v2.6.2]